Time;durP1;ratioP1;P1;durP2;ratioP2;P2;SDS_P1;SDS_P2;PMS_P1;PMS_P2;Temp;Humidity;BMP_temperature;BMP_pressure;BME280_temperature;BME280_humidity;BME280_pressure;Samples;Min_cycle;Max_cycle;Signal;HPM_P1;HPM_P2
2024/04/01 00:01:22;;;;;;;7.35;2.75;;;;;;;13.94;59.61;99303.41;4989888;28;113894;-62
2024/04/01 00:03:48;;;;;;;10.52;3.03;;;;;;;13.92;59.65;99307.97;4987062;28;114055;-63
2024/04/01 00:06:14;;;;;;;5.97;2.78;;;;;;;13.91;59.64;99306.31;4983680;28;124263;-63
2024/04/01 00:08:40;;;;;;;6.22;3.25;;;;;;;13.89;59.64;99313.59;4979323;28;125126;-64
2024/04/01 00:11:07;;;;;;;7.35;3.38;;;;;;;13.86;59.64;99308.50;4970803;28;114358;-62
2024/04/01 00:13:33;;;;;;;6.95;3.47;;;;;;;13.84;59.82;99300.66;4988531;28;113980;-63
2024/04/01 00:15:59;;;;;;;7.30;3.63;;;;;;;13.81;59.76;99301.75;4983739;28;124642;-64
2024/04/01 00:18:25;;;;;;;9.80;3.95;;;;;;;13.79;59.76;99303.69;4991058;28;124271;-63
2024/04/01 00:20:58;;;;;;;6.05;3.53;;;;;;;13.77;59.75;99299.50;4986790;28;115658;-63
2024/04/01 00:23:25;;;;;;;7.55;3.65;;;;;;;13.74;59.66;99295.25;4968432;28;114714;-64
2024/04/01 00:25:51;;;;;;;9.45;3.72;;;;;;;13.71;59.65;99292.00;4983014;28;123992;-64
2024/04/01 00:28:18;;;;;;;10.75;5.18;;;;;;;13.65;59.67;99290.69;4979207;28;123891;-64
2024/04/01 00:30:44;;;;;;;12.73;5.10;;;;;;;13.63;59.63;99287.31;4981932;28;114542;-64
2024/04/01 00:33:11;;;;;;;8.40;4.85;;;;;;;13.61;59.67;99291.91;4965764;28;113095;-64
2024/04/01 00:35:40;;;;;;;14.88;6.10;;;;;;;13.59;59.74;99280.56;4983279;28;124820;-64
2024/04/01 00:38:07;;;;;;;15.40;5.55;;;;;;;13.57;59.76;99282.50;4987027;28;123778;-63
2024/04/01 00:40:35;;;;;;;11.90;5.43;;;;;;;13.55;59.67;99284.44;4973104;28;113781;-65
2024/04/01 00:43:09;;;;;;;7.63;4.97;;;;;;;13.53;59.69;99281.06;4977547;28;114087;-65
2024/04/01 00:45:48;;;;;;;11.75;5.43;;;;;;;13.50;59.72;99270.69;4946408;28;122908;-64
2024/04/01 00:48:16;;;;;;;10.65;5.30;;;;;;;13.49;59.69;99269.00;4981976;28;124197;-65
2024/04/01 00:50:46;;;;;;;11.23;5.50;;;;;;;13.46;59.81;99269.25;4981730;28;114293;-65
2024/04/01 00:53:13;;;;;;;11.50;5.43;;;;;;;13.42;59.70;99264.16;4976367;28;114060;-65
2024/04/01 00:55:42;;;;;;;10.23;5.28;;;;;;;13.39;59.66;99259.13;4960175;28;124786;-65
2024/04/01 00:58:09;;;;;;;12.70;5.72;;;;;;;13.35;59.73;99246.19;4979884;28;124363;-65
2024/04/01 01:00:36;;;;;;;13.05;6.05;;;;;;;13.32;59.82;99235.81;4982414;28;116599;-65
2024/04/01 01:03:03;;;;;;;8.70;5.18;;;;;;;13.30;59.83;99233.28;4978800;28;114008;-63
2024/04/01 01:05:31;;;;;;;7.80;5.20;;;;;;;13.29;59.71;99236.03;4987675;28;124886;-64
2024/04/01 01:07:58;;;;;;;8.70;4.80;;;;;;;13.28;59.77;99235.19;4964913;28;123208;-64
2024/04/01 01:10:25;;;;;;;9.13;4.80;;;;;;;13.25;59.72;99236.28;4983157;28;115206;-64
2024/04/01 01:12:51;;;;;;;9.45;4.80;;;;;;;13.25;59.79;99240.75;4987552;28;115265;-64
2024/04/01 01:15:18;;;;;;;11.07;4.70;;;;;;;13.23;60.04;99234.72;4977463;28;124021;-63
2024/04/01 01:17:45;;;;;;;10.57;4.30;;;;;;;13.20;60.10;99243.81;4980138;28;124008;-64
2024/04/01 01:20:11;;;;;;;10.25;4.20;;;;;;;13.19;60.03;99246.59;4974145;28;114271;-63
2024/04/01 01:22:40;;;;;;;9.50;4.30;;;;;;;13.17;60.27;99243.22;4980353;28;113969;-63
2024/04/01 01:25:07;;;;;;;8.27;4.00;;;;;;;13.16;60.37;99252.13;4966915;28;124681;-64
2024/04/01 01:27:34;;;;;;;7.20;3.92;;;;;;;13.16;60.40;99246.81;4961712;28;122743;-65
2024/04/01 01:30:14;;;;;;;7.82;3.65;;;;;;;13.15;60.39;99246.00;4979931;28;114131;-65
2024/04/01 01:32:54;;;;;;;11.15;4.25;;;;;;;13.16;60.38;99252.13;4967158;28;114429;-65
2024/04/01 01:35:22;;;;;;;9.82;3.92;;;;;;;13.17;60.43;99259.16;4984976;28;123947;-65
2024/04/01 01:37:50;;;;;;;8.07;4.13;;;;;;;13.16;60.45;99262.78;4976985;28;123747;-65
2024/04/01 01:40:17;;;;;;;9.25;4.00;;;;;;;13.17;60.46;99264.47;4973377;28;114286;-65
2024/04/01 01:42:44;;;;;;;10.48;3.83;;;;;;;13.16;60.55;99260.13;4985171;28;113896;-65
2024/04/01 01:45:10;;;;;;;10.25;3.95;;;;;;;13.18;60.51;99258.19;4964285;28;123555;-65
2024/04/01 01:47:38;;;;;;;10.35;3.15;;;;;;;13.20;60.76;99256.22;4984817;28;124277;-65
2024/04/01 01:50:06;;;;;;;6.13;3.45;;;;;;;13.20;60.57;99258.91;4985003;28;114639;-65
2024/04/01 01:52:34;;;;;;;5.80;3.58;;;;;;;13.20;60.57;99258.91;4984838;28;114802;-65
2024/04/01 01:55:01;;;;;;;8.48;3.50;;;;;;;13.21;60.75;99257.94;4983991;28;123996;-65
2024/04/01 01:57:28;;;;;;;6.78;3.50;;;;;;;13.22;60.69;99262.25;4985732;28;124031;-65
2024/04/01 01:59:54;;;;;;;7.00;3.50;;;;;;;13.21;60.81;99261.44;4980088;28;116053;-65
2024/04/01 02:02:21;;;;;;;6.20;3.50;;;;;;;13.21;60.64;99265.91;4979993;28;114777;-65
2024/04/01 02:04:47;;;;;;;7.75;2.90;;;;;;;13.22;60.68;99267.59;4985352;28;124047;-65
2024/04/01 02:07:15;;;;;;;5.63;3.10;;;;;;;13.20;60.96;99265.06;4965435;28;123766;-65
2024/04/01 02:09:41;;;;;;;6.03;3.05;;;;;;;13.21;60.67;99265.91;4961528;28;114212;-65
2024/04/01 02:12:08;;;;;;;7.35;3.40;;;;;;;13.21;60.76;99271.22;4978169;28;112798;-65
2024/04/01 02:14:38;;;;;;;6.18;3.17;;;;;;;13.20;60.71;99280.16;4983105;28;124423;-65
2024/04/01 02:17:09;;;;;;;8.18;3.00;;;;;;;13.19;60.72;99283.81;4973236;28;123746;-65
2024/04/01 02:19:36;;;;;;;8.43;3.22;;;;;;;13.20;60.71;99281.03;4974503;28;114919;-65
2024/04/01 02:22:03;;;;;;;5.45;3.22;;;;;;;13.20;60.76;99269.53;4959035;28;113986;-65
2024/04/01 02:24:30;;;;;;;9.20;3.80;;;;;;;13.22;60.75;99267.59;4974698;28;124548;-65
2024/04/01 02:26:56;;;;;;;5.68;2.92;;;;;;;13.22;60.66;99262.25;4979648;28;125287;-65
2024/04/01 02:29:23;;;;;;;7.85;3.05;;;;;;;13.22;60.60;99262.25;4988300;28;114185;-65
2024/04/01 02:31:49;;;;;;;8.30;3.10;;;;;;;13.21;60.56;99265.91;4980649;28;114275;-65
2024/04/01 02:34:16;;;;;;;6.05;3.08;;;;;;;13.21;60.40;99263.25;4978290;28;124893;-65
2024/04/01 02:36:42;;;;;;;8.52;3.13;;;;;;;13.19;60.51;99263.38;4983123;28;124846;-65
2024/04/01 02:39:16;;;;;;;6.93;3.35;;;;;;;13.18;60.50;99268.81;4983350;28;114511;-64
2024/04/01 02:41:47;;;;;;;6.90;3.13;;;;;;;13.14;60.49;99260.22;4968875;28;113856;-64
2024/04/01 02:44:16;;;;;;;5.57;3.42;;;;;;;13.13;60.41;99257.69;4985284;28;124742;-65
2024/04/01 02:46:43;;;;;;;5.63;3.03;;;;;;;13.11;60.58;99259.63;4977695;28;123643;-65
2024/04/01 02:49:10;;;;;;;6.95;3.72;;;;;;;13.10;60.35;99268.59;4963829;28;114426;-63
2024/04/01 02:51:37;;;;;;;4.80;3.05;;;;;;;13.09;60.39;99273.06;4974460;28;114079;-63
2024/04/01 02:54:05;;;;;;;6.47;3.30;;;;;;;13.08;60.42;99273.19;4966050;28;124031;-63
2024/04/01 02:56:32;;;;;;;6.60;3.35;;;;;;;13.07;60.47;99269.66;4974246;28;123982;-63
2024/04/01 02:59:04;;;;;;;11.07;3.83;;;;;;;13.04;60.47;99265.47;4965939;28;112313;-63
2024/04/01 03:01:30;;;;;;;9.00;3.80;;;;;;;13.04;60.21;99264.63;4986361;28;116297;-63
2024/04/01 03:04:00;;;;;;;12.25;4.57;;;;;;;13.02;60.50;99256.75;4979458;28;123863;-63
2024/04/01 03:06:30;;;;;;;8.23;4.18;;;;;;;13.00;60.58;99242.75;4973826;28;124253;-63
2024/04/01 03:08:56;;;;;;;7.68;4.40;;;;;;;13.00;60.60;99253.38;4984988;28;114867;-63
2024/04/01 03:11:23;;;;;;;10.93;4.60;;;;;;;12.99;60.46;99246.38;4983159;28;113682;-63
2024/04/01 03:13:50;;;;;;;6.30;4.10;;;;;;;12.97;60.40;99253.63;4972946;28;126014;-63
2024/04/01 03:16:18;;;;;;;9.77;4.07;;;;;;;12.94;60.47;99256.56;4969887;28;123446;-63
2024/04/01 03:18:45;;;;;;;6.70;3.67;;;;;;;12.92;60.34;99255.84;4984231;28;114546;-63
2024/04/01 03:21:12;;;;;;;9.73;3.97;;;;;;;12.90;60.32;99257.75;4982014;28;113667;-63
2024/04/01 03:23:38;;;;;;;6.72;4.30;;;;;;;12.88;60.41;99272.97;4977363;28;123715;-63
2024/04/01 03:26:05;;;;;;;10.20;4.57;;;;;;;12.85;60.35;99265.25;4980428;28;123666;-63
2024/04/01 03:28:31;;;;;;;7.75;4.57;;;;;;;12.84;60.44;99258.25;4975648;28;114360;-63
2024/04/01 03:31:03;;;;;;;7.78;4.45;;;;;;;12.82;60.54;99254.88;4990648;28;114682;-63
2024/04/01 03:33:29;;;;;;;9.60;5.03;;;;;;;12.80;60.35;99247.00;4985980;28;124360;-63
2024/04/01 03:35:56;;;;;;;12.65;5.40;;;;;;;12.79;60.48;99239.16;4979607;28;124192;-63
2024/04/01 03:38:22;;;;;;;10.45;5.30;;;;;;;12.78;60.34;99232.16;4972525;28;116060;-63
2024/04/01 03:40:49;;;;;;;10.93;5.20;;;;;;;12.76;60.37;99239.41;4987022;28;114690;-63
2024/04/01 03:43:15;;;;;;;7.95;5.07;;;;;;;12.74;60.47;99246.66;4983985;28;123954;-63
2024/04/01 03:45:41;;;;;;;10.23;4.72;;;;;;;12.72;60.37;99243.28;4983390;28;123826;-63
2024/04/01 03:48:08;;;;;;;10.05;6.00;;;;;;;12.72;60.52;99245.94;4979911;28;114747;-63
2024/04/01 03:50:41;;;;;;;11.00;6.30;;;;;;;12.70;60.67;99243.41;4971722;28;114121;-63
2024/04/01 03:53:07;;;;;;;8.55;5.97;;;;;;;12.70;60.62;99245.22;4963402;28;123402;-63
2024/04/01 03:55:34;;;;;;;9.93;5.82;;;;;;;12.69;60.66;99238.22;4978592;28;125368;-63
2024/04/01 03:58:00;;;;;;;13.75;7.13;;;;;;;12.69;60.58;99238.22;4979839;28;114245;-63
2024/04/01 04:00:26;;;;;;;12.30;7.20;;;;;;;12.66;60.54;99245.47;4967861;28;113871;-63
2024/04/01 04:02:53;;;;;;;13.88;6.93;;;;;;;12.65;60.53;99241.09;4962350;28;123788;-63
2024/04/01 04:05:20;;;;;;;17.63;7.70;;;;;;;12.64;60.63;99242.09;4981679;28;125401;-63
2024/04/01 04:07:46;;;;;;;13.68;7.57;;;;;;;12.64;60.67;99242.09;4969593;28;114973;-64
2024/04/01 04:10:12;;;;;;;14.32;7.43;;;;;;;12.64;60.68;99239.44;4984113;28;113960;-63
2024/04/01 04:12:39;;;;;;;16.48;8.13;;;;;;;12.63;60.60;99240.38;4980149;28;123897;-63
2024/04/01 04:15:07;;;;;;;16.17;7.43;;;;;;;12.62;60.76;99244.03;4981685;28;123723;-64
2024/04/01 04:17:33;;;;;;;11.98;7.47;;;;;;;12.60;60.72;99251.28;4967443;28;114954;-64
2024/04/01 04:19:59;;;;;;;17.13;7.97;;;;;;;12.60;60.64;99253.94;4962181;28;113074;-63
2024/04/01 04:22:26;;;;;;;16.27;8.00;;;;;;;12.58;60.72;99253.22;4980814;28;124069;-64
2024/04/01 04:24:52;;;;;;;14.98;7.68;;;;;;;12.59;60.77;99249.56;4984095;28;124287;-64
2024/04/01 04:27:18;;;;;;;13.48;8.35;;;;;;;12.58;60.65;99252.34;4975747;28;115213;-64
2024/04/01 04:29:45;;;;;;;14.25;7.43;;;;;;;12.59;60.87;99260.19;4979280;28;114719;-64
2024/04/01 04:32:12;;;;;;;12.95;7.20;;;;;;;12.58;60.88;99253.22;4975697;28;123906;-64
2024/04/01 04:34:42;;;;;;;11.65;7.28;;;;;;;12.58;60.89;99255.88;4987947;28;124111;-65
2024/04/01 04:37:08;;;;;;;11.40;6.15;;;;;;;12.59;60.88;99254.03;4986414;28;115168;-65
2024/04/01 04:39:35;;;;;;;13.00;6.00;;;;;;;12.59;60.92;99254.88;4970611;28;113564;-65
2024/04/01 04:42:02;;;;;;;7.85;5.10;;;;;;;12.60;60.83;99258.38;4971097;28;123069;-65
2024/04/01 04:44:29;;;;;;;7.78;5.28;;;;;;;12.60;60.86;99261.91;4965206;28;122775;-65
2024/04/01 04:46:58;;;;;;;7.20;5.03;;;;;;;12.59;61.19;99257.53;4979735;28;114833;-65
2024/04/01 04:49:24;;;;;;;9.48;4.70;;;;;;;12.61;60.92;99263.56;4987581;28;114031;-65
2024/04/01 04:51:51;;;;;;;8.32;4.30;;;;;;;12.61;60.95;99260.91;4975419;28;123935;-65
2024/04/01 04:54:17;;;;;;;5.80;3.70;;;;;;;12.62;61.02;99265.28;4980869;28;123877;-65
2024/04/01 04:56:44;;;;;;;8.38;3.95;;;;;;;12.61;61.00;99268.88;4979020;28;114684;-65
2024/04/01 04:59:10;;;;;;;8.50;4.15;;;;;;;12.60;61.19;99267.22;4969165;28;113162;-65
2024/04/01 05:01:37;;;;;;;7.45;3.70;;;;;;;12.59;61.27;99257.53;4988709;28;123905;-65
2024/04/01 05:04:12;;;;;;;5.47;3.55;;;;;;;12.59;61.22;99264.66;4979228;28;123744;-65
2024/04/01 05:06:39;;;;;;;6.20;3.58;;;;;;;12.61;61.09;99268.88;4981637;28;114205;-65
2024/04/01 05:09:08;;;;;;;7.18;4.30;;;;;;;12.63;61.19;99271.41;4965389;28;114288;-65
2024/04/01 05:11:35;;;;;;;8.25;4.18;;;;;;;12.64;61.06;99263.34;4984823;28;124021;-65
2024/04/01 05:14:03;;;;;;;6.95;3.85;;;;;;;12.66;60.97;99266.72;4982627;28;123980;-65
2024/04/01 05:16:29;;;;;;;8.05;3.83;;;;;;;12.69;61.06;99260.31;4972408;28;115392;-65
2024/04/01 05:18:55;;;;;;;5.85;3.70;;;;;;;12.69;60.85;99254.16;4962638;28;115189;-64
2024/04/01 05:21:22;;;;;;;7.30;3.72;;;;;;;12.70;60.99;99255.84;4977100;28;123934;-63
2024/04/01 05:23:52;;;;;;;6.45;3.75;;;;;;;12.70;60.81;99255.84;4975643;28;124891;-64
2024/04/01 05:26:19;;;;;;;9.73;4.40;;;;;;;12.70;60.88;99261.16;4984748;28;114244;-64
2024/04/01 05:28:46;;;;;;;9.10;4.85;;;;;;;12.67;60.88;99262.25;4971935;28;114203;-64
2024/04/01 05:31:12;;;;;;;6.65;4.05;;;;;;;12.69;60.94;99260.31;4968138;28;123388;-64
2024/04/01 05:33:39;;;;;;;6.38;3.80;;;;;;;12.69;60.98;99270.94;4958666;28;123826;-64
2024/04/01 05:36:06;;;;;;;7.82;4.28;;;;;;;12.69;60.88;99267.44;4983716;28;114300;-64
2024/04/01 05:38:32;;;;;;;6.90;4.00;;;;;;;12.70;60.86;99267.31;4983137;28;114799;-64
2024/04/01 05:40:59;;;;;;;6.88;3.50;;;;;;;12.71;60.93;99268.16;4963842;28;123523;-64
2024/04/01 05:43:26;;;;;;;5.43;3.60;;;;;;;12.71;60.96;99269.00;4974858;28;123849;-64
2024/04/01 05:45:53;;;;;;;4.60;3.20;;;;;;;12.71;61.02;99262.84;4972510;28;114163;-65
2024/04/01 05:48:19;;;;;;;7.40;4.10;;;;;;;12.74;60.87;99273.25;4975626;28;114363;-65
2024/04/01 05:50:50;;;;;;;7.40;3.53;;;;;;;12.75;61.05;99272.25;4983710;28;124076;-64
2024/04/01 05:53:17;;;;;;;7.88;3.35;;;;;;;12.77;61.04;99273.84;4982278;28;123835;-64
2024/04/01 05:55:44;;;;;;;5.28;3.20;;;;;;;12.78;61.07;99274.69;4960365;28;114867;-64
2024/04/01 05:58:12;;;;;;;10.05;2.83;;;;;;;12.81;61.17;99277.09;4973410;28;114613;-64
2024/04/01 06:00:39;;;;;;;3.83;2.60;;;;;;;12.83;61.12;99276.00;4966146;28;123481;-64
2024/04/01 06:03:05;;;;;;;3.40;2.55;;;;;;;12.86;61.11;99272.25;4978236;28;123494;-64
2024/04/01 06:05:35;;;;;;;3.28;2.03;;;;;;;12.88;61.11;99278.28;4969967;28;114043;-63
2024/04/01 06:08:02;;;;;;;3.60;2.28;;;;;;;12.89;61.21;99277.31;4962778;28;115058;-63
2024/04/01 06:10:30;;;;;;;4.72;2.00;;;;;;;12.92;61.07;99287.72;4963850;28;123174;-64
2024/04/01 06:12:56;;;;;;;6.18;2.63;;;;;;;12.94;61.21;99291.09;4983093;28;124583;-64
2024/04/01 06:15:23;;;;;;;4.72;2.28;;;;;;;12.96;61.27;99291.81;4970045;28;114366;-63
2024/04/01 06:17:52;;;;;;;4.40;3.13;;;;;;;12.97;61.28;99301.47;4979442;22;114264;-83
2024/04/01 06:20:18;;;;;;;5.20;2.75;;;;;;;13.01;61.39;99302.91;4969135;28;123099;-85
2024/04/01 06:22:45;;;;;;;3.55;2.47;;;;;;;13.03;61.25;99301.00;4970888;28;123013;-83
2024/04/01 06:25:12;;;;;;;5.10;2.50;;;;;;;13.07;61.30;99306.03;4969543;28;114591;-84
2024/04/01 06:27:38;;;;;;;3.40;2.58;;;;;;;13.10;61.23;99308.47;4977094;28;115074;-82
2024/04/01 06:30:05;;;;;;;3.38;2.38;;;;;;;13.12;61.19;99303.88;4983464;28;123466;-84
2024/04/01 06:32:31;;;;;;;3.53;2.53;;;;;;;13.13;61.35;99310.84;4977268;28;125332;-85
2024/04/01 06:34:58;;;;;;;4.18;2.53;;;;;;;13.15;61.33;99308.94;4970689;28;115259;-83
2024/04/01 06:37:24;;;;;;;3.95;2.03;;;;;;;13.17;61.56;99312.31;4970676;28;114089;-85
2024/04/01 06:39:54;;;;;;;7.38;2.35;;;;;;;13.18;61.36;99319.31;4970532;28;124567;-85
2024/04/01 06:42:20;;;;;;;2.92;2.38;;;;;;;13.18;61.37;99320.16;4957857;28;123502;-84
2024/04/01 06:44:50;;;;;;;2.47;2.00;;;;;;;13.20;61.36;99317.38;4989955;28;114825;-87
2024/04/01 06:47:16;;;;;;;3.33;2.50;;;;;;;13.20;61.49;99317.38;4992295;28;115304;-84
2024/04/01 06:49:43;;;;;;;3.60;2.10;;;;;;;13.21;61.45;99321.75;4969003;28;123497;-85
2024/04/01 06:52:09;;;;;;;3.42;2.17;;;;;;;13.23;61.43;99327.78;4977097;28;124792;-86
2024/04/01 06:54:36;;;;;;;4.13;2.22;;;;;;;13.24;61.63;99329.44;4981911;28;114504;-83
2024/04/01 06:57:02;;;;;;;4.95;2.53;;;;;;;13.28;61.45;99324.72;4964752;28;113312;-82
2024/04/01 06:59:29;;;;;;;3.10;2.13;;;;;;;13.29;61.42;99327.28;4958851;28;123182;-84
2024/04/01 07:01:55;;;;;;;3.92;2.50;;;;;;;13.30;61.50;99334.31;4967092;28;122446;-84
2024/04/01 07:04:22;;;;;;;3.05;2.10;;;;;;;13.31;61.54;99336.00;4961092;28;114223;-83
2024/04/01 07:06:48;;;;;;;3.85;2.70;;;;;;;13.31;61.51;99325.38;4963948;28;114423;-82
2024/04/01 07:09:14;;;;;;;3.00;2.45;;;;;;;13.32;61.53;99340.38;4981300;28;123943;-85
2024/04/01 07:11:41;;;;;;;3.15;2.20;;;;;;;13.36;61.64;99344.47;4968325;28;121877;-84
2024/04/01 07:14:07;;;;;;;3.15;2.35;;;;;;;13.37;61.51;99351.47;4966630;28;114238;-84
2024/04/01 07:16:34;;;;;;;3.00;2.05;;;;;;;13.39;61.61;99348.69;4967142;28;113978;-83
2024/04/01 07:19:00;;;;;;;3.97;2.17;;;;;;;13.40;61.62;99356.53;4974504;28;124643;-83
2024/04/01 07:21:29;;;;;;;3.63;2.60;;;;;;;13.41;61.75;99358.25;4981018;28;126177;-84
2024/04/01 07:23:55;;;;;;;3.67;2.22;;;;;;;13.43;61.61;99361.63;4985418;28;115148;-85
2024/04/01 07:26:21;;;;;;;4.13;2.40;;;;;;;13.46;61.66;99359.69;4960180;28;112189;-84
2024/04/01 07:28:48;;;;;;;3.78;2.40;;;;;;;13.48;61.73;99357.72;4964424;28;124195;-82
2024/04/01 07:31:14;;;;;;;3.67;2.58;;;;;;;13.49;61.71;99365.59;4962608;28;124685;-85
2024/04/01 07:33:41;;;;;;;5.32;3.17;;;;;;;13.49;61.53;99360.28;4942240;28;114500;-84
2024/04/01 07:36:07;;;;;;;3.50;2.67;;;;;;;13.51;61.71;99362.81;4958278;28;113303;-83
2024/04/01 07:38:34;;;;;;;4.18;3.25;;;;;;;13.53;61.86;99369.69;4957017;28;122758;-84
2024/04/01 07:41:00;;;;;;;3.58;2.65;;;;;;;13.56;61.71;99376.56;4967161;28;124500;-84
2024/04/01 07:43:26;;;;;;;4.75;2.90;;;;;;;13.57;61.82;99378.28;4963136;28;114833;-84
2024/04/01 07:45:54;;;;;;;3.85;3.10;;;;;;;13.60;61.79;99380.69;4935085;28;115225;-83
2024/04/01 07:48:20;;;;;;;4.80;3.05;;;;;;;13.62;61.93;99373.44;4964728;28;123924;-83
2024/04/01 07:50:46;;;;;;;5.05;3.35;;;;;;;13.63;61.77;99373.28;4964552;28;124030;-85
2024/04/01 07:53:12;;;;;;;4.60;2.40;;;;;;;13.65;61.79;99381.13;4938538;28;112208;-83
2024/04/01 07:55:39;;;;;;;3.80;2.45;;;;;;;13.66;61.85;99390.84;4953433;28;114900;-84
2024/04/01 07:58:05;;;;;;;3.97;2.47;;;;;;;13.68;61.82;99391.53;4954529;28;123355;-82
2024/04/01 08:00:31;;;;;;;4.15;2.33;;;;;;;13.71;61.65;99391.31;4961026;28;123104;-83
2024/04/01 08:02:58;;;;;;;3.53;2.67;;;;;;;13.73;61.57;99400.00;4955829;28;114030;-83
2024/04/01 08:05:24;;;;;;;3.17;2.53;;;;;;;13.74;61.34;99407.00;4959490;28;114327;-83
2024/04/01 08:07:50;;;;;;;5.20;3.58;;;;;;;13.76;61.87;99410.38;4951833;28;124774;-83
2024/04/01 08:10:17;;;;;;;4.72;3.10;;;;;;;13.77;61.82;99417.41;4940835;28;124650;-84
2024/04/01 08:12:43;;;;;;;4.03;2.83;;;;;;;13.78;61.75;99421.75;4953697;28;114871;-82
2024/04/01 08:15:09;;;;;;;5.95;3.00;;;;;;;13.79;61.77;99422.59;4953856;28;114055;-84
2024/04/01 08:17:35;;;;;;;6.10;3.33;;;;;;;13.79;61.56;99430.59;4956602;28;122400;-83
2024/04/01 08:20:02;;;;;;;7.70;3.25;;;;;;;13.79;61.84;99431.44;4954645;28;123325;-87
2024/04/01 08:22:28;;;;;;;5.30;3.42;;;;;;;13.79;61.59;99436.75;4970019;28;113440;-85
2024/04/01 08:24:55;;;;;;;4.32;3.17;;;;;;;13.80;61.76;99443.75;4948045;28;113261;-83
2024/04/01 08:27:21;;;;;;;5.43;3.30;;;;;;;13.82;61.63;99447.16;4954390;28;123371;-83
2024/04/01 08:29:48;;;;;;;6.05;3.33;;;;;;;13.84;61.81;99455.00;4942520;28;123736;-84
2024/04/01 08:32:14;;;;;;;4.57;3.25;;;;;;;13.87;61.81;99465.41;4955036;28;115345;-83
2024/04/01 08:34:40;;;;;;;5.95;3.80;;;;;;;13.91;61.81;99466.00;4947949;28;114321;-84
2024/04/01 08:37:06;;;;;;;4.63;3.90;;;;;;;13.94;61.74;99471.09;4956782;28;121931;-84
2024/04/01 08:39:33;;;;;;;7.32;4.82;;;;;;;13.94;61.76;99484.41;4964452;28;123916;-82
2024/04/01 08:42:03;;;;;;;9.48;5.55;;;;;;;13.96;61.78;99491.28;4942311;28;112790;-81
2024/04/01 08:44:32;;;;;;;7.28;5.55;;;;;;;13.97;61.72;99497.44;4957511;28;112407;-80
2024/04/01 08:47:00;;;;;;;9.02;6.05;;;;;;;13.99;61.82;99490.16;4974302;28;124703;-81
2024/04/01 08:49:44;;;;;;;7.13;5.47;;;;;;;14.01;61.61;99501.53;4977263;28;97434;-81
2024/04/01 08:52:17;;;;;;;6.82;5.22;;;;;;;14.01;61.69;99510.41;4982834;28;114059;-83
2024/04/01 08:54:43;;;;;;;6.85;5.03;;;;;;;14.02;61.60;99500.59;4958346;28;113434;-82
2024/04/01 08:57:10;;;;;;;9.30;4.80;;;;;;;14.04;61.71;99506.63;4957996;28;123234;-85
2024/04/01 08:59:37;;;;;;;8.07;4.72;;;;;;;14.07;61.74;99509.06;4945735;28;125172;-83
2024/04/01 09:02:03;;;;;;;6.13;4.25;;;;;;;14.10;61.73;99518.59;4988187;28;115134;-84
2024/04/01 09:04:29;;;;;;;6.30;4.22;;;;;;;14.13;61.70;99519.19;4970938;28;113261;-83
2024/04/01 09:06:57;;;;;;;7.28;4.78;;;;;;;14.14;61.78;99520.88;4943302;28;123115;-84
2024/04/01 09:09:24;;;;;;;8.48;5.88;;;;;;;14.17;61.73;99509.97;4947833;28;122157;-83
2024/04/01 09:11:51;;;;;;;7.30;5.70;;;;;;;14.20;61.60;99509.75;4958737;28;112763;-84
2024/04/01 09:14:17;;;;;;;8.40;6.10;;;;;;;14.24;61.56;99498.81;4928726;28;112096;-84
2024/04/01 09:16:48;;;;;;;11.80;6.57;;;;;;;14.30;61.75;99503.66;4948541;28;125092;-84
2024/04/01 09:19:16;;;;;;;9.93;7.90;;;;;;;14.36;61.64;99504.00;4952950;28;122520;-82
2024/04/01 09:21:42;;;;;;;11.93;8.90;;;;;;;14.41;61.48;99506.28;4942401;28;116157;-83
2024/04/01 09:24:10;;;;;;;12.00;9.20;;;;;;;14.42;61.51;99507.97;4938499;28;114136;-84
2024/04/01 09:26:36;;;;;;;12.55;9.40;;;;;;;14.44;61.54;99500.69;4937401;28;123274;-83
2024/04/01 09:29:03;;;;;;;14.57;9.88;;;;;;;14.47;61.43;99510.28;4952217;28;124829;-83
2024/04/01 09:31:29;;;;;;;11.77;9.38;;;;;;;14.49;61.62;99498.50;4950842;28;112393;-81
2024/04/01 09:33:55;;;;;;;13.88;9.48;;;;;;;14.53;61.37;99499.09;4941608;28;114850;-83
2024/04/01 09:36:22;;;;;;;11.10;8.50;;;;;;;14.52;61.29;99502.72;4941240;28;122307;-82
2024/04/01 09:38:51;;;;;;;13.57;7.88;;;;;;;14.52;61.25;99519.56;4949777;28;124283;-82
2024/04/01 09:41:18;;;;;;;11.35;7.90;;;;;;;14.51;61.23;99523.19;4931078;28;115151;-83
2024/04/01 09:43:44;;;;;;;10.77;7.38;;;;;;;14.52;61.14;99530.22;4949020;28;114376;-81
2024/04/01 09:46:11;;;;;;;11.70;7.03;;;;;;;14.53;61.23;99531.91;4962318;28;124140;-83
2024/04/01 09:48:37;;;;;;;8.95;6.00;;;;;;;14.57;61.40;99528.03;4956471;28;124432;-82
2024/04/01 09:51:05;;;;;;;7.53;4.45;;;;;;;14.59;61.25;99526.09;4948534;28;114251;-83
2024/04/01 09:53:32;;;;;;;5.88;4.45;;;;;;;14.62;60.98;99534.78;4946158;28;113073;-82
2024/04/01 09:56:04;;;;;;;7.20;4.35;;;;;;;14.64;60.99;99532.88;4932371;28;125684;-80
2024/04/01 09:58:42;;;;;;;6.68;4.30;;;;;;;14.66;60.97;99536.25;4929862;28;125865;-84
2024/04/01 10:01:22;;;;;;;6.85;4.05;;;;;;;14.64;60.92;99532.88;4949677;28;115465;-84
2024/04/01 10:04:02;;;;;;;5.90;3.90;;;;;;;14.66;60.91;99541.59;4930349;28;115466;-82
2024/04/01 10:06:57;;;;;;;7.32;4.22;;;;;;;14.67;60.83;99538.78;4947021;28;122910;-82
2024/04/01 10:09:42;;;;;;;6.38;4.10;;;;;;;14.67;60.85;99532.59;4951300;28;125771;-83
2024/04/01 10:12:42;;;;;;;9.02;4.10;;;;;;;14.67;60.68;99537.94;4943802;28;113930;-82
2024/04/01 10:15:24;;;;;;;6.45;4.50;;;;;;;14.69;60.80;99546.66;4946931;28;113852;-83
2024/04/01 10:18:03;;;;;;;6.60;4.85;;;;;;;14.69;60.67;99543.97;4928417;28;123727;-83
2024/04/01 10:20:50;;;;;;;9.13;5.88;;;;;;;14.70;60.59;99545.69;4946874;28;125137;-82
2024/04/01 10:23:55;;;;;;;8.43;6.25;;;;;;;14.70;60.49;99548.34;4944610;28;115219;-83
2024/04/01 10:27:08;;;;;;;10.18;6.55;;;;;;;14.70;60.56;99548.34;4907420;28;115589;-81
2024/04/01 10:29:55;;;;;;;10.90;6.75;;;;;;;14.73;60.50;99542.75;4913569;28;125007;-83
2024/04/01 10:32:59;;;;;;;10.70;7.18;;;;;;;14.75;60.60;99546.16;4947071;28;125782;-82
2024/04/01 10:35:39;;;;;;;10.10;6.53;;;;;;;14.78;60.27;99551.22;4952653;28;114323;-80
2024/04/01 10:38:32;;;;;;;10.25;7.35;;;;;;;14.76;60.38;99547.84;4931535;28;114267;-82
2024/04/01 10:41:46;;;;;;;14.57;9.70;;;;;;;14.76;60.34;99542.50;4947589;28;126263;-81
2024/04/01 10:44:31;;;;;;;13.85;9.43;;;;;;;14.74;60.31;99545.28;4944905;28;123718;-81
2024/04/01 10:47:08;;;;;;;12.50;9.35;;;;;;;14.75;60.03;99551.50;4945016;28;115228;-81
2024/04/01 10:49:59;;;;;;;16.30;10.75;;;;;;;14.74;60.18;99549.78;4948283;28;114149;-80
2024/04/01 10:52:47;;;;;;;14.57;9.85;;;;;;;14.73;60.10;99548.06;4935266;28;124958;-80
2024/04/01 10:55:45;;;;;;;12.23;9.50;;;;;;;14.73;60.21;99559.59;4949999;28;123772;-82
2024/04/01 10:58:49;;;;;;;15.05;9.85;;;;;;;14.75;60.12;99562.16;4931480;28;114844;-82
2024/04/01 11:01:40;;;;;;;16.35;10.43;;;;;;;14.77;60.42;99576.19;4955857;28;113451;-78
2024/04/01 11:04:44;;;;;;;12.40;9.10;;;;;;;14.82;60.27;99578.47;4949370;28;123729;-81
2024/04/01 11:07:22;;;;;;;13.00;9.27;;;;;;;14.84;60.19;99595.16;4956301;28;123935;-81
2024/04/01 11:10:01;;;;;;;14.23;9.45;;;;;;;14.84;60.08;99598.69;4945134;28;116480;-81
2024/04/01 11:12:38;;;;;;;11.55;9.20;;;;;;;14.88;60.26;99602.81;4934861;28;113431;-81
2024/04/01 11:15:08;;;;;;;11.57;8.32;;;;;;;14.94;59.99;99594.28;4966306;28;125538;-82
2024/04/01 11:17:36;;;;;;;15.68;8.43;;;;;;;15.01;60.15;99599.09;4932063;28;125593;-80
2024/04/01 11:20:27;;;;;;;9.43;7.10;;;;;;;15.07;60.12;99609.25;4950668;28;115415;-81
2024/04/01 11:23:02;;;;;;;9.73;6.55;;;;;;;15.12;59.79;99612.38;4954319;28;113959;-82
2024/04/01 11:26:02;;;;;;;11.00;5.75;;;;;;;15.16;59.98;99613.81;4944205;28;124874;-81
2024/04/01 11:28:41;;;;;;;8.80;5.53;;;;;;;15.23;59.93;99604.31;4973275;28;125513;-81
2024/04/01 11:31:22;;;;;;;7.13;5.65;;;;;;;15.27;59.74;99605.75;4932325;28;111990;-79
2024/04/01 11:34:16;;;;;;;10.02;5.45;;;;;;;15.33;59.47;99610.59;4956374;28;114887;-78